This is the latest recevied weather packets stored in our database for station/object PU5FJO-13. If no packets are shown the sender has not sent any weather packets the latest 10 day(s).
| Time | Temp. | Humidity | Pressure | Rain* | Wind** | Luminosity | Snow |
|---|---|---|---|---|---|---|---|
| 1777863372 | 14.44° C | 74% | 1022.9 hPa | - | - | - | - |
| 1777862772 | 14.44° C | 74% | 1022.9 hPa | - | - | - | - |
| 1777862172 | 15° C | 71% | 1023.1 hPa | - | - | - | - |
| 1777861572 | 14.44° C | 73% | 1023.1 hPa | - | - | - | - |
| 1777860972 | 15° C | 70% | 1023.1 hPa | - | - | - | - |
| 1777860372 | 15° C | 71% | 1023.2 hPa | - | - | - | - |
| 1777859772 | 15° C | 70% | 1023.2 hPa | - | - | - | - |
| 1777859174 | 15° C | 70% | 1023.4 hPa | - | - | - | - |
| 1777858572 | 15.56° C | 69% | 1023.4 hPa | - | - | - | - |
| 1777857972 | 15.56° C | 67% | 1023.4 hPa | - | - | - | - |
| 1777857372 | 14.44° C | 71% | 1023.6 hPa | - | - | - | - |
| 1777856772 | 12.78° C | 77% | 1023.7 hPa | - | - | - | - |
| 1777856172 | 13.33° C | 76% | 1023.7 hPa | - | - | - | - |
| 1777855572 | 14.44° C | 71% | 1023.7 hPa | - | - | - | - |
| 1777854972 | 15.56° C | 68% | 1023.6 hPa | - | - | - | - |
| 1777854372 | 16.11° C | 68% | 1023.7 hPa | - | - | - | - |
| 1777853772 | 16.11° C | 69% | 1023.7 hPa | - | - | - | - |
| 1777853172 | 15.56° C | 68% | 1023.7 hPa | - | - | - | - |
| 1777852572 | 16.11° C | 66% | 1023.6 hPa | - | - | - | - |
| 1777851972 | 15° C | 72% | 1023.7 hPa | - | - | - | - |
| 1777851372 | 16.67° C | 66% | 1023.6 hPa | - | - | - | - |
| 1777850772 | 17.22° C | 65% | 1023.5 hPa | - | - | - | - |
| 1777850172 | 17.78° C | 64% | 1023.6 hPa | - | - | - | - |
| 1777849572 | 17.22° C | 65% | 1023.5 hPa | - | - | - | - |
| 1777848972 | 16.11° C | 70% | 1023.5 hPa | - | - | - | - |
* Rain since midnight (hover to see other rain measurements)
** Current wind speed in m/s (hover to see current wind gust speed)